Time;durP1;ratioP1;P1;durP2;ratioP2;P2;SDS_P1;SDS_P2;PMS_P1;PMS_P2;Temp;Humidity;BMP_temperature;BMP_pressure;BME280_temperature;BME280_humidity;BME280_pressure;Samples;Min_cycle;Max_cycle;Signal;HPM_P1;HPM_P2
2023/01/28 00:00:33;;;;;;;0.10;0.10;;;;;;;;;;6159283;23;20000;-91
2023/01/28 00:02:59;;;;;;;0.10;0.10;;;;;;;;;;6160378;23;20473;-90
2023/01/28 00:05:24;;;;;;;0.10;0.10;;;3.00;99.90;;;;;;6159927;23;20005;-92
2023/01/28 00:07:51;;;;;;;0.10;0.10;;;;;;;;;;6163205;23;20020;-90
2023/01/28 00:10:16;;;;;;;0.10;0.10;;;;;;;;;;6163095;23;20092;-91
2023/01/28 00:12:42;;;;;;;0.10;0.10;;;3.00;99.90;;;;;;6163726;23;20009;-90
2023/01/28 00:15:09;;;;;;;0.10;0.10;;;2.90;99.90;;;;;;6158526;23;20370;-89
2023/01/28 00:17:36;;;;;;;0.10;0.10;;;2.80;99.90;;;;;;6160684;23;20001;-90
2023/01/28 00:20:03;;;;;;;0.10;0.10;;;2.80;99.90;;;;;;6163409;23;20012;-90
2023/01/28 00:22:28;;;;;;;0.10;0.10;;;2.90;99.90;;;;;;6162403;23;20012;-90
2023/01/28 00:24:54;;;;;;;0.10;0.10;;;;;;;;;;6162807;23;19997;-90
2023/01/28 00:27:20;;;;;;;0.10;0.10;;;2.90;99.90;;;;;;6161228;23;20009;-90
2023/01/28 00:29:46;;;;;;;0.10;0.10;;;;;;;;;;6161892;23;19997;-90
2023/01/28 00:32:12;;;;;;;0.10;0.10;;;2.80;99.90;;;;;;6159203;23;20001;-91
2023/01/28 00:34:38;;;;;;;0.10;0.10;;;;;;;;;;6159647;23;20402;-90
2023/01/28 00:37:04;;;;;;;0.10;0.10;;;;;;;;;;6159525;23;20084;-90
2023/01/28 00:39:29;;;;;;;0.03;0.03;;;2.70;99.90;;;;;;6162054;23;19997;-90
2023/01/28 00:41:55;;;;;;;0.10;0.10;;;2.90;99.90;;;;;;6165789;23;20008;-90
2023/01/28 00:44:21;;;;;;;0.10;0.10;;;2.90;99.90;;;;;;6162333;23;20009;-90
2023/01/28 00:46:46;;;;;;;0.10;0.10;;;2.90;99.90;;;;;;6162588;23;20005;-91
2023/01/28 00:49:12;;;;;;;0.10;0.10;;;;;;;;;;6162117;23;20097;-92
2023/01/28 00:51:38;;;;;;;0.10;0.10;;;;;;;;;;6160544;23;20009;-90
2023/01/28 00:54:04;;;;;;;0.10;0.10;;;;;;;;;;6159964;23;20005;-90
2023/01/28 00:56:30;;;;;;;0.10;0.10;;;;;;;;;;6164009;23;20001;-91
2023/01/28 00:58:56;;;;;;;0.10;0.10;;;;;;;;;;6161690;23;20001;-90
2023/01/28 01:01:24;;;;;;;0.00;0.00;;;2.90;99.90;;;;;;6163197;23;20011;-90
2023/01/28 01:03:56;;;;;;;0.00;0.00;;;2.90;99.90;;;;;;6162065;23;20016;-93
2023/01/28 01:06:23;;;;;;;0.10;0.10;;;2.90;99.90;;;;;;6163060;23;20063;-92
2023/01/28 01:08:49;;;;;;;0.10;0.10;;;;;;;;;;6161686;23;20009;-92
2023/01/28 01:11:15;;;;;;;0.08;0.08;;;;;;;;;;6158820;23;20458;-90
2023/01/28 01:13:41;;;;;;;0.10;0.10;;;;;;;;;;6159888;23;20024;-92
2023/01/28 01:16:15;;;;;;;0.10;0.10;;;2.80;99.90;;;;;;6159473;23;20001;-93
2023/01/28 01:18:41;;;;;;;0.10;0.10;;;;;;;;;;6161501;23;20001;-91
2023/01/28 01:21:13;;;;;;;0.00;0.00;;;2.80;99.90;;;;;;6161602;23;19997;-91
2023/01/28 01:23:39;;;;;;;0.10;0.10;;;2.70;99.90;;;;;;6160382;23;20013;-92
2023/01/28 01:26:05;;;;;;;0.10;0.10;;;3.00;99.90;;;;;;6157272;23;20426;-92
2023/01/28 01:28:32;;;;;;;0.10;0.10;;;;;;;;;;6162829;23;20068;-90
2023/01/28 01:31:03;;;;;;;0.10;0.10;;;3.00;99.90;;;;;;6160955;23;20008;-92
2023/01/28 01:33:29;;;;;;;0.00;0.00;;;;;;;;;;6163359;23;20073;-90
2023/01/28 01:35:55;;;;;;;0.10;0.10;;;2.80;99.90;;;;;;6162111;23;20032;-91
2023/01/28 01:38:21;;;;;;;0.10;0.10;;;;;;;;;;6162764;23;20377;-90
2023/01/28 01:40:47;;;;;;;0.00;0.00;;;2.90;99.90;;;;;;6162627;23;20037;-91
2023/01/28 01:43:18;;;;;;;0.00;0.00;;;2.80;99.90;;;;;;6162965;23;20016;-90
2023/01/28 01:45:46;;;;;;;0.10;0.10;;;3.00;99.90;;;;;;6160889;23;20008;-90
2023/01/28 01:48:30;;;;;;;0.10;0.10;;;2.80;99.90;;;;;;6163994;23;20065;-90
2023/01/28 01:51:05;;;;;;;0.10;0.10;;;3.00;99.90;;;;;;6164615;23;20002;-91
2023/01/28 01:53:31;;;;;;;0.10;0.10;;;;;;;;;;6163660;23;20068;-93
2023/01/28 01:56:04;;;;;;;0.10;0.10;;;2.70;99.90;;;;;;6160028;23;20112;-90
2023/01/28 01:58:34;;;;;;;0.00;0.00;;;2.90;99.90;;;;;;6161467;23;20001;-91
2023/01/28 02:01:00;;;;;;;0.10;0.10;;;;;;;;;;6164993;23;20500;-90
2023/01/28 02:03:35;;;;;;;0.10;0.10;;;2.90;99.90;;;;;;6164450;23;20032;-90
2023/01/28 02:06:02;;;;;;;0.00;0.00;;;2.80;99.90;;;;;;6157232;23;20040;-90
2023/01/28 02:08:28;;;;;;;0.00;0.00;;;;;;;;;;6161966;23;20409;-90
2023/01/28 02:11:13;;;;;;;0.00;0.00;;;2.80;99.90;;;;;;6162062;23;20008;-90
2023/01/28 02:13:43;;;;;;;0.10;0.10;;;2.90;99.90;;;;;;6162206;23;20012;-89
2023/01/28 02:16:10;;;;;;;0.10;0.10;;;2.90;99.90;;;;;;6163250;23;20028;-91
2023/01/28 02:18:39;;;;;;;0.10;0.10;;;2.90;99.90;;;;;;6166483;23;20334;-91
2023/01/28 02:21:30;;;;;;;0.10;0.10;;;2.80;99.90;;;;;;6167898;23;20001;-90
2023/01/28 02:24:10;;;;;;;0.00;0.00;;;2.80;99.90;;;;;;6166144;23;20013;-90
2023/01/28 02:26:48;;;;;;;0.10;0.10;;;2.70;99.90;;;;;;6161451;23;20005;-90
2023/01/28 02:29:26;;;;;;;0.10;0.10;;;2.70;99.90;;;;;;6164679;23;20040;-90
2023/01/28 02:32:27;;;;;;;0.10;0.10;;;2.70;99.90;;;;;;6164532;23;20005;-90
2023/01/28 02:35:03;;;;;;;0.00;0.00;;;2.60;99.90;;;;;;6137156;23;20013;-88
2023/01/28 02:37:39;;;;;;;0.00;0.00;;;2.60;99.90;;;;;;6165398;23;20357;-91
2023/01/28 02:40:11;;;;;;;0.10;0.10;;;2.60;99.90;;;;;;6165361;23;20220;-89
2023/01/28 02:42:37;;;;;;;0.10;0.10;;;;;;;;;;6162111;23;20005;-90
2023/01/28 02:45:17;;;;;;;0.10;0.10;;;2.50;99.90;;;;;;6161462;23;20005;-89
2023/01/28 02:47:58;;;;;;;0.10;0.10;;;;;;;;;;6163481;23;20005;-90
2023/01/28 02:50:31;;;;;;;0.10;0.10;;;2.60;99.90;;;;;;6159220;23;20017;-90
2023/01/28 02:53:43;;;;;;;0.10;0.10;;;2.70;99.90;;;;;;6165911;23;20056;-92
2023/01/28 02:56:34;;;;;;;0.10;0.10;;;2.70;99.90;;;;;;6160578;23;20028;-92
2023/01/28 02:59:30;;;;;;;0.10;0.10;;;2.70;99.90;;;;;;6162526;23;19997;-93
2023/01/28 03:02:19;;;;;;;0.10;0.10;;;2.60;99.90;;;;;;6163626;23;20024;-90
2023/01/28 03:04:54;;;;;;;0.10;0.10;;;2.60;99.90;;;;;;6162106;23;20515;-91
2023/01/28 03:07:24;;;;;;;0.10;0.10;;;2.70;99.90;;;;;;6160147;23;20008;-92
2023/01/28 03:09:51;;;;;;;0.03;0.03;;;2.70;99.90;;;;;;6161057;23;20027;-90
2023/01/28 03:38:22;;;;;;;0.10;0.10;;;2.60;99.90;;;;;;6188784;23;20012;-91
2023/01/28 03:40:49;;;;;;;0.10;0.10;;;2.50;99.90;;;;;;6161121;23;19998;-90
2023/01/28 03:43:15;;;;;;;0.10;0.10;;;;;;;;;;6161998;23;20442;-92
2023/01/28 03:45:41;;;;;;;0.10;0.10;;;;;;;;;;6159487;23;20036;-92
2023/01/28 03:48:07;;;;;;;0.00;0.00;;;2.50;99.90;;;;;;6158908;23;20013;-90
2023/01/28 03:50:32;;;;;;;0.10;0.10;;;2.50;99.90;;;;;;6160662;23;20008;-89
2023/01/28 03:53:10;;;;;;;0.05;0.05;;;;;;;;;;6161223;23;19997;-89
2023/01/28 03:55:36;;;;;;;0.10;0.10;;;;;;;;;;6159362;23;19997;-89
2023/01/28 03:58:04;;;;;;;0.10;0.10;;;2.50;99.90;;;;;;6158965;23;20390;-90
2023/01/28 04:00:31;;;;;;;0.10;0.10;;;;;;;;;;6160863;23;20009;-92
2023/01/28 04:02:57;;;;;;;0.10;0.10;;;;;;;;;;6161742;23;20012;-91
2023/01/28 04:05:24;;;;;;;0.00;0.00;;;;;;;;;;6160935;23;20008;-90
2023/01/28 04:07:54;;;;;;;0.10;0.10;;;2.60;99.90;;;;;;6160654;23;20122;-92
2023/01/28 04:10:20;;;;;;;0.10;0.10;;;;;;;;;;6162953;23;20069;-90
2023/01/28 04:12:48;;;;;;;0.10;0.10;;;;;;;;;;6161514;23;20028;-91
2023/01/28 04:15:14;;;;;;;0.10;0.10;;;;;;;;;;6160005;23;20496;-90
2023/01/28 04:17:44;;;;;;;0.10;0.10;;;2.50;99.90;;;;;;6162175;23;20001;-90
2023/01/28 04:20:11;;;;;;;0.10;0.10;;;;;;;;;;6163186;23;20029;-92
2023/01/28 04:22:37;;;;;;;0.10;0.10;;;;;;;;;;6159605;23;20007;-89
2023/01/28 04:25:02;;;;;;;0.10;0.10;;;2.60;99.90;;;;;;6163162;23;20087;-90
2023/01/28 04:27:28;;;;;;;0.10;0.10;;;2.60;99.90;;;;;;6163212;23;20115;-90
2023/01/28 04:29:53;;;;;;;0.10;0.10;;;2.70;99.90;;;;;;6162231;23;20009;-90
2023/01/28 04:32:19;;;;;;;0.10;0.10;;;;;;;;;;6162840;23;20001;-91
2023/01/28 04:34:45;;;;;;;0.00;0.00;;;2.50;99.90;;;;;;6165848;23;19904;-91
2023/01/28 04:37:11;;;;;;;0.10;0.10;;;;;;;;;;6164176;23;20005;-91
2023/01/28 04:39:36;;;;;;;0.10;0.10;;;;;;;;;;6164224;23;20005;-91
2023/01/28 04:42:02;;;;;;;0.10;0.10;;;;;;;;;;6166346;23;20012;-89
2023/01/28 04:44:28;;;;;;;0.10;0.10;;;;;;;;;;6161598;23;20516;-89
2023/01/28 04:46:54;;;;;;;0.10;0.10;;;;;;;;;;6162665;23;20064;-91
2023/01/28 04:49:20;;;;;;;0.10;0.10;;;;;;;;;;6162191;23;20036;-91
2023/01/28 04:51:46;;;;;;;0.10;0.10;;;;;;;;;;6162712;23;20005;-91
2023/01/28 04:54:12;;;;;;;0.10;0.10;;;;;;;;;;6161932;23;20012;-90
2023/01/28 04:56:38;;;;;;;0.10;0.10;;;;;;;;;;6161319;23;20088;-90
2023/01/28 04:59:04;;;;;;;0.10;0.10;;;;;;;;;;6156407;23;20016;-92
2023/01/28 05:01:30;;;;;;;0.00;0.00;;;;;;;;;;6160540;23;19997;-91
2023/01/28 05:03:56;;;;;;;0.10;0.10;;;;;;;;;;6163436;23;20120;-91
2023/01/28 05:06:22;;;;;;;0.00;0.00;;;;;;;;;;6164701;23;20005;-91
2023/01/28 05:08:48;;;;;;;0.10;0.10;;;2.30;99.90;;;;;;6162034;23;20067;-92
2023/01/28 05:11:14;;;;;;;0.10;0.10;;;;;;;;;;6164951;23;20016;-90
2023/01/28 05:13:40;;;;;;;0.00;0.00;;;;;;;;;;6164424;23;20009;-91
2023/01/28 05:16:06;;;;;;;0.10;0.10;;;;;;;;;;6163283;23;20016;-92
2023/01/28 05:18:32;;;;;;;0.10;0.10;;;;;;;;;;6162972;23;20012;-91
2023/01/28 05:20:58;;;;;;;0.05;0.05;;;;;;;;;;6163705;23;20036;-90
2023/01/28 05:23:24;;;;;;;0.10;0.10;;;;;;;;;;6163488;23;20070;-91
2023/01/28 05:25:50;;;;;;;0.10;0.10;;;;;;;;;;6163923;23;20012;-92
2023/01/28 05:28:16;;;;;;;0.13;0.13;;;;;;;;;;6162161;23;20012;-90
2023/01/28 05:30:41;;;;;;;0.10;0.10;;;2.10;99.90;;;;;;6162110;23;20005;-93
2023/01/28 05:33:07;;;;;;;0.10;0.10;;;;;;;;;;6164345;23;20043;-89
2023/01/28 05:35:33;;;;;;;0.10;0.10;;;2.10;99.90;;;;;;6160749;23;20005;-91
2023/01/28 05:37:59;;;;;;;0.10;0.10;;;;;;;;;;6164258;23;20167;-91
2023/01/28 05:40:25;;;;;;;0.00;0.00;;;;;;;;;;6161962;23;20001;-92
2023/01/28 05:42:50;;;;;;;0.10;0.10;;;2.30;99.90;;;;;;6164698;23;20043;-92
2023/01/28 05:45:16;;;;;;;0.10;0.10;;;2.20;99.90;;;;;;6162856;23;20426;-89
2023/01/28 05:47:41;;;;;;;0.10;0.10;;;2.20;99.90;;;;;;6162901;23;20016;-90
2023/01/28 05:50:07;;;;;;;0.10;0.10;;;2.20;99.90;;;;;;6164101;23;20016;-90
2023/01/28 05:52:33;;;;;;;0.10;0.10;;;2.20;99.90;;;;;;6163888;23;20033;-91
2023/01/28 05:55:00;;;;;;;0.10;0.10;;;2.20;99.90;;;;;;6159615;23;20327;-90
2023/01/28 05:57:26;;;;;;;0.10;0.10;;;;;;;;;;6161495;23;20032;-90
2023/01/28 05:59:52;;;;;;;0.10;0.10;;;;;;;;;;6162028;23;20008;-91
2023/01/28 06:02:17;;;;;;;0.10;0.10;;;;;;;;;;6159594;23;20051;-90
2023/01/28 06:04:43;;;;;;;0.08;0.08;;;;;;;;;;6154899;23;20067;-89
2023/01/28 06:07:12;;;;;;;0.10;0.10;;;2.00;99.90;;;;;;6161292;23;20009;-92
2023/01/28 06:09:37;;;;;;;0.08;0.08;;;1.90;99.90;;;;;;6160968;23;20092;-91
2023/01/28 06:12:03;;;;;;;0.10;0.10;;;2.00;99.90;;;;;;6161929;23;20001;-91
2023/01/28 06:14:28;;;;;;;0.00;0.00;;;1.10;99.90;;;;;;6159133;23;20069;-90
2023/01/28 06:16:54;;;;;;;0.10;0.10;;;2.10;99.90;;;;;;6163550;23;20005;-88
2023/01/28 06:19:20;;;;;;;0.10;0.10;;;;;;;;;;6158447;23;19997;-90
2023/01/28 06:21:45;;;;;;;0.10;0.10;;;2.10;99.90;;;;;;6159050;23;20005;-89
2023/01/28 06:24:12;;;;;;;0.10;0.10;;;2.20;99.90;;;;;;6155813;23;20055;-87
2023/01/28 06:26:38;;;;;;;0.00;0.00;;;;;;;;;;6155713;23;20009;-91
2023/01/28 06:29:04;;;;;;;0.00;0.00;;;2.20;99.90;;;;;;6156069;23;20160;-90
2023/01/28 06:31:29;;;;;;;0.00;0.00;;;2.20;99.90;;;;;;6157393;23;20498;-90
2023/01/28 06:33:55;;;;;;;0.10;0.10;;;;;;;;;;6158130;23;20135;-88
2023/01/28 06:36:21;;;;;;;0.00;0.00;;;;;;;;;;6158993;23;20010;-90
2023/01/28 06:38:47;;;;;;;0.10;0.10;;;2.20;99.90;;;;;;6158099;23;20005;-89
2023/01/28 06:41:13;;;;;;;0.10;0.10;;;;;;;;;;6157546;23;20079;-89
2023/01/28 06:43:38;;;;;;;0.10;0.10;;;2.20;99.90;;;;;;6157043;23;20095;-91
2023/01/28 06:46:04;;;;;;;0.10;0.10;;;;;;;;;;6156692;23;20044;-89
2023/01/28 06:48:31;;;;;;;0.10;0.10;;;;;;;;;;6159721;23;20012;-89
2023/01/28 06:50:56;;;;;;;0.10;0.10;;;;;;;;;;6160901;23;20005;-89
2023/01/28 06:53:22;;;;;;;0.00;0.00;;;2.30;99.90;;;;;;6158292;23;20099;-90
2023/01/28 06:55:48;;;;;;;0.10;0.10;;;2.30;99.90;;;;;;6157022;23;19997;-90
2023/01/28 06:58:13;;;;;;;0.10;0.10;;;2.20;99.90;;;;;;6157020;23;20009;-89
2023/01/28 07:00:39;;;;;;;0.10;0.10;;;2.20;99.90;;;;;;6157242;23;20381;-89
2023/01/28 07:03:04;;;;;;;0.10;0.10;;;2.20;99.90;;;;;;6157322;23;20437;-88
2023/01/28 07:05:30;;;;;;;0.10;0.10;;;2.10;99.90;;;;;;6157292;23;20009;-89
2023/01/28 07:07:56;;;;;;;0.10;0.10;;;;;;;;;;6157616;23;20016;-90
2023/01/28 07:10:22;;;;;;;0.10;0.10;;;2.00;99.90;;;;;;6153793;23;20071;-89
2023/01/28 07:12:47;;;;;;;0.10;0.10;;;2.00;99.90;;;;;;6159572;23;20013;-89
2023/01/28 07:15:14;;;;;;;0.10;0.10;;;2.10;99.90;;;;;;6160109;23;20080;-89
2023/01/28 07:17:43;;;;;;;0.10;0.10;;;2.20;99.90;;;;;;6161946;23;20001;-91
2023/01/28 07:20:11;;;;;;;0.10;0.10;;;2.00;99.90;;;;;;6160901;23;20009;-89
2023/01/28 07:22:39;;;;;;;0.10;0.10;;;2.30;99.90;;;;;;6157042;23;20001;-89
2023/01/28 07:25:06;;;;;;;0.10;0.10;;;2.20;99.90;;;;;;6156250;23;20005;-89
2023/01/28 07:27:32;;;;;;;0.10;0.10;;;2.30;99.90;;;;;;6155091;23;20116;-89
2023/01/28 07:29:58;;;;;;;0.10;0.10;;;;;;;;;;6152972;23;20043;-90
2023/01/28 07:32:26;;;;;;;0.10;0.10;;;;;;;;;;6154923;23;20000;-91
2023/01/28 07:34:52;;;;;;;0.10;0.10;;;;;;;;;;6158911;23;20001;-89
2023/01/28 07:37:17;;;;;;;0.10;0.10;;;2.40;99.90;;;;;;6160439;23;20005;-89
2023/01/28 07:39:43;;;;;;;0.10;0.10;;;2.40;99.90;;;;;;6158674;23;20008;-90
2023/01/28 07:42:08;;;;;;;0.10;0.10;;;2.30;99.90;;;;;;6154988;23;20009;-90
2023/01/28 07:44:35;;;;;;;0.10;0.10;;;2.30;99.90;;;;;;6155418;23;20013;-89
2023/01/28 07:47:02;;;;;;;0.10;0.10;;;;;;;;;;6154004;23;20341;-89
2023/01/28 07:49:27;;;;;;;0.10;0.10;;;2.30;99.90;;;;;;6153545;23;20283;-88
2023/01/28 07:51:53;;;;;;;0.10;0.10;;;2.30;99.90;;;;;;6157203;23;20335;-89
2023/01/28 07:54:18;;;;;;;0.15;0.15;;;;;;;;;;6158041;23;20008;-87
2023/01/28 07:56:44;;;;;;;0.10;0.10;;;;;;;;;;6156251;23;20060;-90
2023/01/28 07:59:10;;;;;;;0.10;0.10;;;2.40;99.90;;;;;;6179563;23;20381;-92
2023/01/28 08:01:36;;;;;;;0.08;0.08;;;;;;;;;;6182885;23;20020;-89
2023/01/28 08:04:02;;;;;;;0.10;0.10;;;;;;;;;;6160606;23;20082;-90
2023/01/28 08:06:28;;;;;;;0.10;0.10;;;;;;;;;;6156759;23;20024;-92
2023/01/28 08:08:54;;;;;;;0.10;0.10;;;;;;;;;;6158186;23;20026;-88
2023/01/28 08:11:20;;;;;;;0.10;0.10;;;2.50;99.90;;;;;;6157072;23;20009;-90
2023/01/28 08:13:46;;;;;;;0.10;0.10;;;2.50;99.90;;;;;;6157250;23;20067;-89
2023/01/28 08:16:12;;;;;;;0.10;0.10;;;2.50;99.90;;;;;;6157008;23;20008;-88
2023/01/28 08:18:38;;;;;;;0.10;0.10;;;;;;;;;;6160882;23;20040;-88
2023/01/28 08:21:04;;;;;;;0.00;0.00;;;2.60;99.90;;;;;;6155244;23;20461;-90
2023/01/28 08:23:30;;;;;;;0.10;0.10;;;2.60;99.90;;;;;;6157476;23;20083;-89
2023/01/28 08:25:57;;;;;;;0.10;0.10;;;2.60;99.90;;;;;;6156755;23;20008;-91
2023/01/28 08:28:23;;;;;;;0.10;0.10;;;;;;;;;;6160080;23;20015;-91
2023/01/28 08:30:49;;;;;;;0.10;0.10;;;;;;;;;;6160565;23;20005;-90
2023/01/28 08:33:17;;;;;;;0.10;0.10;;;2.50;99.90;;;;;;6162382;23;20092;-90
2023/01/28 08:35:43;;;;;;;0.10;0.10;;;;;;;;;;6161828;23;20009;-89
2023/01/28 08:38:10;;;;;;;0.10;0.10;;;2.50;99.90;;;;;;6157476;23;20011;-91
2023/01/28 08:40:36;;;;;;;0.10;0.10;;;2.40;99.90;;;;;;6155506;23;20438;-89
2023/01/28 08:43:02;;;;;;;0.10;0.10;;;1.90;99.90;;;;;;6158379;23;20012;-89
2023/01/28 08:45:29;;;;;;;0.10;0.10;;;2.50;99.90;;;;;;6157718;23;20013;-90
2023/01/28 08:48:05;;;;;;;0.10;0.10;;;2.40;99.90;;;;;;6157329;23;20457;-89
2023/01/28 08:50:33;;;;;;;0.10;0.10;;;2.60;99.90;;;;;;6156541;23;20005;-90
2023/01/28 08:53:01;;;;;;;0.10;0.10;;;2.50;99.90;;;;;;6157361;23;20012;-89
2023/01/28 08:55:27;;;;;;;0.03;0.03;;;2.50;99.90;;;;;;6152273;23;20009;-87
2023/01/28 08:57:53;;;;;;;0.10;0.10;;;;;;;;;;6155270;23;20040;-89
2023/01/28 09:00:20;;;;;;;0.10;0.10;;;2.60;99.90;;;;;;6159729;23;20008;-89
2023/01/28 09:02:46;;;;;;;0.10;0.10;;;2.60;99.90;;;;;;6154752;23;20016;-91
2023/01/28 09:05:13;;;;;;;0.10;0.10;;;2.60;99.90;;;;;;6154623;23;20426;-90
2023/01/28 09:07:39;;;;;;;0.10;0.10;;;;;;;;;;6154104;23;20013;-89
2023/01/28 09:10:05;;;;;;;0.10;0.10;;;2.50;99.90;;;;;;6156644;23;20008;-89
2023/01/28 09:12:32;;;;;;;0.00;0.00;;;;;;;;;;6156708;23;20001;-89
2023/01/28 09:14:57;;;;;;;0.10;0.10;;;;;;;;;;6153942;23;20041;-89
2023/01/28 09:17:23;;;;;;;0.05;0.05;;;;;;;;;;6160821;23;20001;-89
2023/01/28 09:19:49;;;;;;;0.10;0.10;;;2.80;99.90;;;;;;6160442;23;20044;-88
2023/01/28 09:22:16;;;;;;;0.03;0.03;;;2.60;99.90;;;;;;6160814;23;20085;-87
2023/01/28 09:24:41;;;;;;;0.00;0.00;;;;;;;;;;6160094;23;20011;-88
2023/01/28 09:27:07;;;;;;;0.00;0.00;;;;;;;;;;6159155;23;20005;-89
2023/01/28 09:29:33;;;;;;;0.10;0.10;;;2.20;99.90;;;;;;6160148;23;20005;-88
2023/01/28 09:31:59;;;;;;;0.10;0.10;;;2.20;99.90;;;;;;6158836;23;20016;-88
2023/01/28 09:34:25;;;;;;;0.00;0.00;;;2.10;99.90;;;;;;6160494;23;20009;-89
2023/01/28 09:36:50;;;;;;;0.10;0.10;;;1.90;99.90;;;;;;6162619;23;20063;-88
2023/01/28 09:39:16;;;;;;;0.03;0.03;;;;;;;;;;6160671;23;20079;-87
2023/01/28 09:42:13;;;;;;;0.03;0.03;;;2.20;99.90;;;;;;6161213;23;20005;-87
2023/01/28 09:45:00;;;;;;;0.00;0.00;;;2.30;99.90;;;;;;6160582;23;20031;-88
2023/01/28 09:47:40;;;;;;;0.10;0.10;;;2.00;99.90;;;;;;6160838;23;20012;-88
2023/01/28 09:50:16;;;;;;;0.08;0.08;;;2.10;99.90;;;;;;6160432;23;20009;-87
2023/01/28 09:52:42;;;;;;;0.10;0.10;;;;;;;;;;6162528;23;20029;-87
2023/01/28 09:55:38;;;;;;;0.10;0.10;;;2.10;99.90;;;;;;6160845;23;20082;-89
2023/01/28 09:58:09;;;;;;;0.10;0.10;;;2.10;99.90;;;;;;6156713;23;20398;-88
2023/01/28 10:01:04;;;;;;;0.10;0.10;;;3.50;99.90;;;;;;6158593;23;20001;-88
2023/01/28 10:03:46;;;;;;;0.10;0.10;;;2.30;99.90;;;;;;6131452;23;20011;-89
2023/01/28 10:06:14;;;;;;;0.10;0.10;;;2.30;99.90;;;;;;6158545;23;20043;-88
2023/01/28 10:08:58;;;;;;;0.10;0.10;;;2.50;99.90;;;;;;6159806;23;20016;-89
2023/01/28 10:11:42;;;;;;;0.10;0.10;;;2.50;99.90;;;;;;6158942;23;20477;-89
2023/01/28 10:14:30;;;;;;;0.10;0.10;;;2.80;99.90;;;;;;6158448;23;20009;-89
2023/01/28 10:17:33;;;;;;;0.00;0.00;;;2.60;99.90;;;;;;6157806;23;20504;-89
2023/01/28 10:20:21;;;;;;;0.05;0.05;;;2.70;99.90;;;;;;6084087;23;20056;-88
2023/01/28 10:22:57;;;;;;;0.10;0.10;;;2.70;99.90;;;;;;6160514;23;20063;-89
2023/01/28 10:25:29;;;;;;;0.10;0.10;;;2.90;99.90;;;;;;6160262;23;19997;-88
2023/01/28 10:27:55;;;;;;;0.10;0.10;;;;;;;;;;6158299;23;20064;-89
2023/01/28 10:30:21;;;;;;;0.10;0.10;;;;;;;;;;6162090;23;20059;-88
2023/01/28 10:32:53;;;;;;;0.10;0.10;;;2.70;99.60;;;;;;6162865;23;20001;-89
2023/01/28 10:35:20;;;;;;;0.10;0.10;;;2.90;99.90;;;;;;6162360;23;20012;-88
2023/01/28 10:37:46;;;;;;;0.10;0.10;;;;;;;;;;6162823;23;20431;-89
2023/01/28 10:40:15;;;;;;;0.10;0.10;;;3.00;99.50;;;;;;6163732;23;20040;-89
2023/01/28 10:42:41;;;;;;;0.13;0.13;;;;;;;;;;6164562;23;19997;-88
2023/01/28 10:45:22;;;;;;;0.10;0.10;;;3.10;99.00;;;;;;6162004;23;20081;-86
2023/01/28 10:48:12;;;;;;;0.10;0.10;;;3.00;99.50;;;;;;6160949;23;20029;-88
2023/01/28 10:50:48;;;;;;;;;;;2.80;99.50;;;;;;6162968;23;20011;-89
2023/01/28 10:53:13;;;;;;;0.10;0.10;;;2.50;99.90;;;;;;6162642;23;19912;-89
2023/01/28 10:55:53;;;;;;;0.10;0.10;;;2.40;99.90;;;;;;6161328;23;20085;-89
2023/01/28 10:58:22;;;;;;;0.10;0.10;;;2.40;99.90;;;;;;6163851;23;20468;-87
2023/01/28 11:00:58;;;;;;;0.10;0.10;;;2.40;99.90;;;;;;6164313;23;20016;-87
2023/01/28 11:03:31;;;;;;;0.10;0.10;;;;;;;;;;6165266;23;20013;-90
2023/01/28 11:05:57;;;;;;;0.10;0.10;;;2.60;99.90;;;;;;6164075;23;20039;-88
2023/01/28 11:08:25;;;;;;;0.10;0.10;;;2.60;99.90;;;;;;6159650;23;20027;-89
2023/01/28 11:10:53;;;;;;;0.10;0.10;;;2.70;99.90;;;;;;6161035;23;20084;-88
2023/01/28 11:13:29;;;;;;;0.10;0.10;;;2.50;99.90;;;;;;6164291;23;19993;-91
2023/01/28 11:16:15;;;;;;;0.10;0.10;;;2.60;99.90;;;;;;6179395;23;20005;-87
2023/01/28 11:18:50;;;;;;;0.10;0.10;;;2.80;99.90;;;;;;6173441;23;20067;-88
2023/01/28 11:21:20;;;;;;;0.10;0.10;;;2.70;99.90;;;;;;6168879;23;20027;-87
2023/01/28 11:24:12;;;;;;;0.10;0.10;;;2.60;99.90;;;;;;6169733;23;20100;-89
2023/01/28 11:26:42;;;;;;;0.00;0.00;;;2.40;99.90;;;;;;6173089;23;20013;-88
2023/01/28 11:29:25;;;;;;;0.05;0.05;;;2.30;99.90;;;;;;6169468;23;20019;-90
2023/01/28 11:31:51;;;;;;;0.00;0.00;;;2.20;99.90;;;;;;6171218;23;20001;-88
2023/01/28 11:34:18;;;;;;;0.10;0.10;;;2.10;99.90;;;;;;6170233;23;20009;-86
2023/01/28 11:37:01;;;;;;;0.10;0.10;;;2.30;99.90;;;;;;6169242;23;20005;-88
2023/01/28 11:39:28;;;;;;;0.10;0.10;;;2.30;99.90;;;;;;6171263;23;20084;-87
2023/01/28 11:42:02;;;;;;;0.10;0.10;;;2.50;99.90;;;;;;6173104;23;19997;-90
2023/01/28 11:44:27;;;;;;;0.00;0.00;;;2.70;99.90;;;;;;6172149;23;20005;-87
2023/01/28 11:47:24;;;;;;;0.10;0.10;;;2.70;99.90;;;;;;6171278;23;20099;-89
2023/01/28 11:50:14;;;;;;;0.10;0.10;;;2.80;99.90;;;;;;6161529;23;20028;-91
2023/01/28 11:52:52;;;;;;;0.10;0.10;;;2.60;99.90;;;;;;6164813;23;20017;-90
2023/01/28 11:55:39;;;;;;;0.03;0.03;;;2.80;99.90;;;;;;6165808;23;20001;-90
2023/01/28 11:58:53;;;;;;;0.10;0.10;;;2.80;99.90;;;;;;6167012;23;20019;-89
2023/01/28 12:01:39;;;;;;;0.10;0.10;;;3.00;99.90;;;;;;6168179;23;20449;-90
2023/01/28 12:04:35;;;;;;;0.00;0.00;;;3.00;99.90;;;;;;6164708;23;20217;-90
2023/01/28 12:07:44;;;;;;;0.10;0.10;;;3.10;99.90;;;;;;6167440;23;20323;-89
2023/01/28 12:10:28;;;;;;;0.10;0.10;;;3.40;99.90;;;;;;6165711;23;20005;-88
2023/01/28 12:13:04;;;;;;;0.00;0.00;;;3.50;99.90;;;;;;6166117;23;20016;-90
2023/01/28 12:15:56;;;;;;;0.10;0.10;;;3.40;99.90;;;;;;6164200;23;20113;-91
2023/01/28 12:18:34;;;;;;;0.10;0.10;;;3.50;99.90;;;;;;6161767;23;20009;-90
2023/01/28 12:21:24;;;;;;;0.00;0.00;;;3.40;99.90;;;;;;6163154;23;19997;-90
2023/01/28 12:24:08;;;;;;;0.08;0.08;;;3.40;99.90;;;;;;6166719;23;20016;-89
2023/01/28 12:26:56;;;;;;;0.10;0.10;;;3.40;99.90;;;;;;6166139;23;20016;-87
2023/01/28 12:29:42;;;;;;;0.10;0.10;;;3.30;99.90;;;;;;6168312;23;20005;-87
2023/01/28 12:32:52;;;;;;;0.10;0.10;;;3.20;99.90;;;;;;6170841;23;20005;-85
2023/01/28 12:35:21;;;;;;;0.10;0.10;;;3.20;99.90;;;;;;6172579;23;20020;-87
2023/01/28 12:38:14;;;;;;;0.10;0.10;;;3.10;99.90;;;;;;6170742;23;20032;-86
2023/01/28 12:40:45;;;;;;;0.10;0.10;;;3.20;99.90;;;;;;6162024;23;20039;-89
2023/01/28 12:43:20;;;;;;;0.10;0.10;;;3.50;99.90;;;;;;6167165;23;20069;-88
2023/01/28 12:45:52;;;;;;;0.10;0.10;;;3.30;99.90;;;;;;6168249;23;20009;-89
2023/01/28 12:48:28;;;;;;;0.03;0.03;;;3.40;99.90;;;;;;6168270;23;20087;-87
2023/01/28 12:51:07;;;;;;;0.00;0.00;;;3.50;99.90;;;;;;6166699;23;20021;-89
2023/01/28 12:53:51;;;;;;;0.10;0.10;;;3.50;99.90;;;;;;6167421;23;20430;-87
2023/01/28 12:56:20;;;;;;;0.10;0.10;;;3.40;99.90;;;;;;6167604;23;20005;-88
2023/01/28 12:59:27;;;;;;;0.10;0.10;;;3.30;99.90;;;;;;6164858;23;20511;-89
2023/01/28 13:02:12;;;;;;;0.10;0.10;;;3.50;99.90;;;;;;6165216;23;20001;-88
2023/01/28 13:04:59;;;;;;;0.00;0.00;;;3.60;99.90;;;;;;6163491;23;20040;-89
2023/01/28 13:07:33;;;;;;;0.10;0.10;;;6.80;99.90;;;;;;6165408;23;20016;-88
2023/01/28 13:10:25;;;;;;;0.10;0.10;;;3.50;99.90;;;;;;6166666;23;20001;-89
2023/01/28 13:12:51;;;;;;;0.08;0.08;;;3.70;99.90;;;;;;6109465;23;20025;-88
2023/01/28 13:15:18;;;;;;;0.08;0.08;;;3.40;99.90;;;;;;6166250;23;20461;-88
2023/01/28 13:17:59;;;;;;;0.10;0.10;;;3.50;99.90;;;;;;6168180;23;20031;-87
2023/01/28 13:20:49;;;;;;;0.05;0.05;;;3.40;99.80;;;;;;6165428;23;20434;-89
2023/01/28 13:23:29;;;;;;;0.00;0.00;;;3.30;99.10;;;;;;6173694;23;20072;-89
2023/01/28 13:25:55;;;;;;;0.00;0.00;;;3.30;99.80;;;;;;6167639;23;20016;-86
2023/01/28 13:28:30;;;;;;;0.00;0.00;;;3.10;99.90;;;;;;6168979;23;20009;-88
2023/01/28 13:31:16;;;;;;;0.10;0.10;;;2.90;99.90;;;;;;6170073;23;20009;-87
2023/01/28 13:34:19;;;;;;;0.10;0.10;;;3.00;99.90;;;;;;6165645;23;20005;-88
2023/01/28 13:36:46;;;;;;;0.10;0.10;;;3.00;99.90;;;;;;6158443;23;20068;-88
2023/01/28 13:39:46;;;;;;;0.10;0.10;;;3.10;99.90;;;;;;6160588;23;20039;-90
2023/01/28 13:45:34;;;;;;;0.05;0.05;;;;;;;;;;6038077;23;20091;-88
2023/01/28 13:48:28;;;;;;;0.10;0.10;;;3.60;99.90;;;;;;6039069;23;20040;-89
2023/01/28 13:50:55;;;;;;;0.10;0.10;;;3.60;99.70;;;;;;6141507;23;20076;-89
2023/01/28 13:53:44;;;;;;;0.10;0.10;;;3.30;99.90;;;;;;6160195;23;20009;-90
2023/01/28 13:56:21;;;;;;;0.10;0.10;;;3.20;99.90;;;;;;6161297;23;20009;-89
2023/01/28 13:59:05;;;;;;;0.10;0.10;;;3.30;99.90;;;;;;6158597;23;20005;-90
2023/01/28 14:05:42;;;;;;;0.10;0.10;;;3.10;99.90;;;;;;6204319;23;20013;-91
2023/01/28 14:15:22;;;;;;;0.00;0.00;;;3.20;99.90;;;;;;6211340;23;20068;-91
2023/01/28 14:23:32;;;;;;;0.10;0.10;;;;;;;;;;6199247;23;20021;-92
2023/01/28 14:26:17;;;;;;;0.10;0.10;;;3.10;99.90;;;;;;6178478;23;20033;-93
2023/01/28 14:29:10;;;;;;;0.10;0.10;;;3.00;99.90;;;;;;6179281;23;20001;-94
2023/01/28 14:31:37;;;;;;;0.10;0.10;;;2.80;99.90;;;;;;6178183;23;20017;-93
2023/01/28 14:34:37;;;;;;;0.10;0.10;;;2.40;99.90;;;;;;6179794;23;20012;-93
2023/01/28 14:37:11;;;;;;;0.15;0.15;;;2.60;99.90;;;;;;6180003;23;20008;-92